Aigaion — SYMC — position and weather

sailwx.info

Track history (hours):
 
Tides and Currents Weather Stations Pressure Air Temp Water Temp Dewpoint Dewpoint Depression Visibility Wind Speed Wind Dir Waves Ship Positions

Aigaion

Last reported at 2017-Jan-15 17:28 UTC. Time now 2017-Jan-17 00:55 UTC.
Position S 20°20' E 117°26'.

Length 289 m; draft 17.8 m.

Type: Cargo ship. MMSI: 240174000.

Date/timePositionNaut miles runAvg speedWind from/ knotsBaromVisibWave heightAir tempDewpointWater temp
2017-Jan-15 17:28S 20°20' E 117°26'8 8.7
2017-Jan-15 16:33S 20°28' E 117°25'1010.2
2017-Jan-15 15:33S 20°31' E 117°15'6 5.8
2017-Jan-15 14:33S 20°35' E 117°11'0 0.0
2017-Jan-15 13:33S 20°35' E 117°11'0 0.0
2017-Jan-15 12:21S 20°35' E 117°11'0 0.0
2017-Jan-15 11:21S 20°35' E 117°11'0 0.0
2017-Jan-15 10:27S 20°35' E 117°11'0 0.0
2017-Jan-15 09:21S 20°35' E 117°11'0 0.0
2017-Jan-15 08:33S 20°35' E 117°11'0 0.0
2017-Jan-15 07:21S 20°35' E 117°11'0 0.0
2017-Jan-15 06:27S 20°35' E 117°11'0 0.0
2017-Jan-15 05:33S 20°35' E 117°11'0 0.0
2017-Jan-15 03:27S 20°35' E 117°11'0 0.0
2017-Jan-15 02:27S 20°35' E 117°11'0 0.0
2017-Jan-15 01:21S 20°35' E 117°11'0 0.0
2017-Jan-15 00:27S 20°35' E 117°11'0 0.0
2017-Jan-14 23:33S 20°35' E 117°11'0 0.0
2017-Jan-14 21:33S 20°35' E 117°11'0 0.0
2017-Jan-14 20:27S 20°35' E 117°11'0 0.0
2017-Jan-14 19:33S 20°35' E 117°11'0 0.0
2017-Jan-14 18:33S 20°35' E 117°11'0 0.0
2017-Jan-14 17:33S 20°35' E 117°11'0 0.0
2017-Jan-14 16:27S 20°35' E 117°11'0 0.0
2017-Jan-14 15:09S 20°35' E 117°11'0 0.0
2017-Jan-14 14:33S 20°35' E 117°11'0 0.0
2017-Jan-14 13:27S 20°35' E 117°11'0 0.0
2017-Jan-14 12:33S 20°35' E 117°11'0 0.0
2017-Jan-14 11:33S 20°35' E 117°11'0 0.0
2017-Jan-14 10:33S 20°35' E 117°11'0 0.0
2017-Jan-14 09:33S 20°35' E 117°11'0 0.0
2017-Jan-14 08:33S 20°35' E 117°11'0 0.0
2017-Jan-14 04:33S 20°35' E 117°11'0 0.0
2017-Jan-14 03:21S 20°35' E 117°11'0 0.0
2017-Jan-13 23:33S 20°35' E 117°11'0 0.0
2017-Jan-13 22:27S 20°35' E 117°11'0 0.0
2017-Jan-13 21:21S 20°35' E 117°11'0 0.0
2017-Jan-13 20:15S 20°35' E 117°11'0 0.0
2017-Jan-13 18:27S 20°35' E 117°11'0 0.0
2017-Jan-13 17:33S 20°35' E 117°11'0 0.0
2017-Jan-13 16:27S 20°35' E 117°11'0 0.0
2017-Jan-13 15:27S 20°35' E 117°11'0 0.5
2017-Jan-13 14:33S 20°35' E 117°11'7 6.6
2017-Jan-13 13:33S 20°33' E 117°18'4 3.7
2017-Jan-13 12:33S 20°34' E 117°22'1 1.4
2017-Jan-13 11:33S 20°32' E 117°22'3 3.4
2017-Jan-13 10:33S 20°30' E 117°25'6 6.2
2017-Jan-13 09:33S 20°24' E 117°27'6 5.9
2017-Jan-13 08:33S 20°19' E 117°27'12110.0
2017-Jan-12 20:30S 18°19' E 117°07'  
Track history (hours):
 
Tides and Currents Weather Stations Pressure Air Temp Water Temp Dewpoint Dewpoint Depression Visibility Wind Speed Wind Dir Waves Ship Positions

Aigaion

Last reported at 2017-Jan-15 17:28 UTC. Time now 2017-Jan-17 00:55 UTC.
Position S 20°20' E 117°26'.

Length 289 m; draft 17.8 m.

Type: Cargo ship. MMSI: 240174000.

Date/timePositionNaut miles runAvg speedWind from/ knotsBaromVisibWave heightAir tempDewpointWater temp
2017-Jan-15 17:28S 20°20' E 117°26'8 8.7
2017-Jan-15 16:33S 20°28' E 117°25'1010.2
2017-Jan-15 15:33S 20°31' E 117°15'6 5.8
2017-Jan-15 14:33S 20°35' E 117°11'0 0.0
2017-Jan-15 13:33S 20°35' E 117°11'0 0.0
2017-Jan-15 12:21S 20°35' E 117°11'0 0.0
2017-Jan-15 11:21S 20°35' E 117°11'0 0.0
2017-Jan-15 10:27S 20°35' E 117°11'0 0.0
2017-Jan-15 09:21S 20°35' E 117°11'0 0.0
2017-Jan-15 08:33S 20°35' E 117°11'0 0.0
2017-Jan-15 07:21S 20°35' E 117°11'0 0.0
2017-Jan-15 06:27S 20°35' E 117°11'0 0.0
2017-Jan-15 05:33S 20°35' E 117°11'0 0.0
2017-Jan-15 03:27S 20°35' E 117°11'0 0.0
2017-Jan-15 02:27S 20°35' E 117°11'0 0.0
2017-Jan-15 01:21S 20°35' E 117°11'0 0.0
2017-Jan-15 00:27S 20°35' E 117°11'0 0.0
2017-Jan-14 23:33S 20°35' E 117°11'0 0.0
2017-Jan-14 21:33S 20°35' E 117°11'0 0.0
2017-Jan-14 20:27S 20°35' E 117°11'0 0.0
2017-Jan-14 19:33S 20°35' E 117°11'0 0.0
2017-Jan-14 18:33S 20°35' E 117°11'0 0.0
2017-Jan-14 17:33S 20°35' E 117°11'0 0.0
2017-Jan-14 16:27S 20°35' E 117°11'0 0.0
2017-Jan-14 15:09S 20°35' E 117°11'0 0.0
2017-Jan-14 14:33S 20°35' E 117°11'0 0.0
2017-Jan-14 13:27S 20°35' E 117°11'0 0.0
2017-Jan-14 12:33S 20°35' E 117°11'0 0.0
2017-Jan-14 11:33S 20°35' E 117°11'0 0.0
2017-Jan-14 10:33S 20°35' E 117°11'0 0.0
2017-Jan-14 09:33S 20°35' E 117°11'0 0.0
2017-Jan-14 08:33S 20°35' E 117°11'0 0.0
2017-Jan-14 04:33S 20°35' E 117°11'0 0.0
2017-Jan-14 03:21S 20°35' E 117°11'0 0.0
2017-Jan-13 23:33S 20°35' E 117°11'0 0.0
2017-Jan-13 22:27S 20°35' E 117°11'0 0.0
2017-Jan-13 21:21S 20°35' E 117°11'0 0.0
2017-Jan-13 20:15S 20°35' E 117°11'0 0.0
2017-Jan-13 18:27S 20°35' E 117°11'0 0.0
2017-Jan-13 17:33S 20°35' E 117°11'0 0.0
2017-Jan-13 16:27S 20°35' E 117°11'0 0.0
2017-Jan-13 15:27S 20°35' E 117°11'0 0.5
2017-Jan-13 14:33S 20°35' E 117°11'7 6.6
2017-Jan-13 13:33S 20°33' E 117°18'4 3.7
2017-Jan-13 12:33S 20°34' E 117°22'1 1.4
2017-Jan-13 11:33S 20°32' E 117°22'3 3.4
2017-Jan-13 10:33S 20°30' E 117°25'6 6.2
2017-Jan-13 09:33S 20°24' E 117°27'6 5.9
2017-Jan-13 08:33S 20°19' E 117°27'12110.0
2017-Jan-12 20:30S 18°19' E 117°07'  

Dump ship's entire track history